sensor_id;sensor_type;location;lat;lon;timestamp;temperature;humidity
5130;DHT22;2583;50.946;6.954;2023-09-18T00:00:53;22.10;1.00
5130;DHT22;2583;50.946;6.954;2023-09-18T00:03:21;22.10;1.00
5130;DHT22;2583;50.946;6.954;2023-09-18T00:05:52;22.10;1.00
5130;DHT22;2583;50.946;6.954;2023-09-18T00:08:19;22.10;1.00
5130;DHT22;2583;50.946;6.954;2023-09-18T00:10:51;22.10;1.00
5130;DHT22;2583;50.946;6.954;2023-09-18T00:13:19;22.00;1.00
5130;DHT22;2583;50.946;6.954;2023-09-18T00:15:46;22.00;1.00
5130;DHT22;2583;50.946;6.954;2023-09-18T00:18:14;22.00;1.00
5130;DHT22;2583;50.946;6.954;2023-09-18T00:20:41;22.00;1.00
5130;DHT22;2583;50.946;6.954;2023-09-18T00:23:09;22.10;1.00
5130;DHT22;2583;50.946;6.954;2023-09-18T00:25:36;22.10;1.00
5130;DHT22;2583;50.946;6.954;2023-09-18T00:28:03;22.00;1.00
5130;DHT22;2583;50.946;6.954;2023-09-18T00:30:31;22.00;1.00
5130;DHT22;2583;50.946;6.954;2023-09-18T00:32:57;22.00;1.00
5130;DHT22;2583;50.946;6.954;2023-09-18T00:35:24;21.90;1.00
5130;DHT22;2583;50.946;6.954;2023-09-18T00:37:51;21.90;1.00
5130;DHT22;2583;50.946;6.954;2023-09-18T00:40:19;21.90;1.00
5130;DHT22;2583;50.946;6.954;2023-09-18T00:42:45;21.90;1.00
5130;DHT22;2583;50.946;6.954;2023-09-18T00:45:12;21.90;1.00
5130;DHT22;2583;50.946;6.954;2023-09-18T00:47:39;21.90;1.00
5130;DHT22;2583;50.946;6.954;2023-09-18T00:50:08;21.90;1.00
5130;DHT22;2583;50.946;6.954;2023-09-18T00:52:37;21.90;1.00
5130;DHT22;2583;50.946;6.954;2023-09-18T00:55:06;21.80;1.00
5130;DHT22;2583;50.946;6.954;2023-09-18T00:57:34;21.80;1.00
5130;DHT22;2583;50.946;6.954;2023-09-18T01:00:02;21.80;1.00
5130;DHT22;2583;50.946;6.954;2023-09-18T01:02:31;21.80;1.00
5130;DHT22;2583;50.946;6.954;2023-09-18T01:04:58;21.80;1.00
5130;DHT22;2583;50.946;6.954;2023-09-18T01:07:25;21.90;1.00
5130;DHT22;2583;50.946;6.954;2023-09-18T01:09:55;21.90;1.00
5130;DHT22;2583;50.946;6.954;2023-09-18T01:17:41;21.80;1.00
5130;DHT22;2583;50.946;6.954;2023-09-18T01:20:12;21.80;1.00
5130;DHT22;2583;50.946;6.954;2023-09-18T01:22:39;21.70;1.00
5130;DHT22;2583;50.946;6.954;2023-09-18T01:25:06;21.80;1.00
5130;DHT22;2583;50.946;6.954;2023-09-18T01:27:33;21.70;1.00
5130;DHT22;2583;50.946;6.954;2023-09-18T01:30:00;21.70;1.00
5130;DHT22;2583;50.946;6.954;2023-09-18T01:32:30;21.70;1.00
5130;DHT22;2583;50.946;6.954;2023-09-18T01:35:00;21.70;1.00
5130;DHT22;2583;50.946;6.954;2023-09-18T01:37:30;21.70;1.00
5130;DHT22;2583;50.946;6.954;2023-09-18T01:39:57;21.70;1.00
5130;DHT22;2583;50.946;6.954;2023-09-18T01:42:29;21.70;1.00
5130;DHT22;2583;50.946;6.954;2023-09-18T01:44:56;21.70;1.00
5130;DHT22;2583;50.946;6.954;2023-09-18T01:47:23;21.70;1.00
5130;DHT22;2583;50.946;6.954;2023-09-18T01:49:50;21.70;1.00
5130;DHT22;2583;50.946;6.954;2023-09-18T01:52:17;21.70;1.00
5130;DHT22;2583;50.946;6.954;2023-09-18T01:54:44;21.70;1.00
5130;DHT22;2583;50.946;6.954;2023-09-18T01:57:11;21.70;1.00
5130;DHT22;2583;50.946;6.954;2023-09-18T01:59:39;21.70;1.00
5130;DHT22;2583;50.946;6.954;2023-09-18T02:02:06;21.70;1.00
5130;DHT22;2583;50.946;6.954;2023-09-18T02:04:37;21.70;1.00
5130;DHT22;2583;50.946;6.954;2023-09-18T02:07:23;21.70;1.00
5130;DHT22;2583;50.946;6.954;2023-09-18T02:09:50;21.60;1.00
5130;DHT22;2583;50.946;6.954;2023-09-18T02:12:17;21.60;1.00
5130;DHT22;2583;50.946;6.954;2023-09-18T02:14:47;21.70;1.00
5130;DHT22;2583;50.946;6.954;2023-09-18T02:17:14;21.70;1.00
5130;DHT22;2583;50.946;6.954;2023-09-18T02:19:40;21.70;1.00
5130;DHT22;2583;50.946;6.954;2023-09-18T02:22:07;21.70;1.00
5130;DHT22;2583;50.946;6.954;2023-09-18T02:24:34;21.70;1.00
5130;DHT22;2583;50.946;6.954;2023-09-18T02:27:04;21.70;1.00
5130;DHT22;2583;50.946;6.954;2023-09-18T02:29:32;21.70;1.00
5130;DHT22;2583;50.946;6.954;2023-09-18T02:31:58;21.70;1.00
5130;DHT22;2583;50.946;6.954;2023-09-18T02:34:25;21.70;1.00
5130;DHT22;2583;50.946;6.954;2023-09-18T02:36:52;21.80;1.00
5130;DHT22;2583;50.946;6.954;2023-09-18T02:39:19;21.80;1.00
5130;DHT22;2583;50.946;6.954;2023-09-18T02:41:45;21.80;1.00
5130;DHT22;2583;50.946;6.954;2023-09-18T02:44:12;21.80;1.00
5130;DHT22;2583;50.946;6.954;2023-09-18T02:46:41;21.80;1.00
5130;DHT22;2583;50.946;6.954;2023-09-18T02:49:08;21.80;1.00
5130;DHT22;2583;50.946;6.954;2023-09-18T02:51:35;21.80;1.00
5130;DHT22;2583;50.946;6.954;2023-09-18T02:54:02;21.80;1.00
5130;DHT22;2583;50.946;6.954;2023-09-18T02:56:29;21.70;1.00
5130;DHT22;2583;50.946;6.954;2023-09-18T02:58:55;21.70;1.00
5130;DHT22;2583;50.946;6.954;2023-09-18T03:01:22;21.70;1.00
5130;DHT22;2583;50.946;6.954;2023-09-18T03:03:49;21.70;1.00
5130;DHT22;2583;50.946;6.954;2023-09-18T03:06:16;21.60;1.00
5130;DHT22;2583;50.946;6.954;2023-09-18T03:08:43;21.60;1.00
5130;DHT22;2583;50.946;6.954;2023-09-18T03:11:13;21.60;1.00
5130;DHT22;2583;50.946;6.954;2023-09-18T03:13:45;21.60;1.00
5130;DHT22;2583;50.946;6.954;2023-09-18T03:16:13;21.60;1.00
5130;DHT22;2583;50.946;6.954;2023-09-18T03:18:40;21.60;1.00
5130;DHT22;2583;50.946;6.954;2023-09-18T03:21:07;21.60;1.00
5130;DHT22;2583;50.946;6.954;2023-09-18T03:23:34;21.50;1.00
5130;DHT22;2583;50.946;6.954;2023-09-18T03:26:00;21.50;1.00
5130;DHT22;2583;50.946;6.954;2023-09-18T03:28:27;21.50;1.00
5130;DHT22;2583;50.946;6.954;2023-09-18T03:30:54;21.50;1.00
5130;DHT22;2583;50.946;6.954;2023-09-18T03:33:21;21.50;1.00
5130;DHT22;2583;50.946;6.954;2023-09-18T03:35:49;21.50;1.00
5130;DHT22;2583;50.946;6.954;2023-09-18T03:38:17;21.50;1.00
5130;DHT22;2583;50.946;6.954;2023-09-18T03:40:44;21.50;1.00
5130;DHT22;2583;50.946;6.954;2023-09-18T03:43:11;21.50;1.00
5130;DHT22;2583;50.946;6.954;2023-09-18T03:45:39;21.50;1.00
5130;DHT22;2583;50.946;6.954;2023-09-18T03:48:09;21.40;1.00
5130;DHT22;2583;50.946;6.954;2023-09-18T03:50:36;21.50;1.00
5130;DHT22;2583;50.946;6.954;2023-09-18T03:53:03;21.40;1.00
5130;DHT22;2583;50.946;6.954;2023-09-18T03:55:30;21.40;1.00
5130;DHT22;2583;50.946;6.954;2023-09-18T03:57:57;21.50;1.00
5130;DHT22;2583;50.946;6.954;2023-09-18T04:00:24;21.50;1.00
5130;DHT22;2583;50.946;6.954;2023-09-18T04:02:51;21.40;1.00
5130;DHT22;2583;50.946;6.954;2023-09-18T04:05:18;21.50;1.00
5130;DHT22;2583;50.946;6.954;2023-09-18T04:07:45;21.40;1.00
5130;DHT22;2583;50.946;6.954;2023-09-18T04:10:14;21.40;1.00
5130;DHT22;2583;50.946;6.954;2023-09-18T04:12:49;21.50;1.00
5130;DHT22;2583;50.946;6.954;2023-09-18T04:15:20;21.50;1.00
5130;DHT22;2583;50.946;6.954;2023-09-18T04:17:47;21.50;1.00
5130;DHT22;2583;50.946;6.954;2023-09-18T04:20:15;21.50;1.00
5130;DHT22;2583;50.946;6.954;2023-09-18T04:22:47;21.50;1.00
5130;DHT22;2583;50.946;6.954;2023-09-18T04:25:17;21.50;1.00
5130;DHT22;2583;50.946;6.954;2023-09-18T04:27:46;21.50;1.00
5130;DHT22;2583;50.946;6.954;2023-09-18T04:30:16;21.40;1.00
5130;DHT22;2583;50.946;6.954;2023-09-18T04:32:44;21.40;1.00
5130;DHT22;2583;50.946;6.954;2023-09-18T04:35:11;21.40;1.00
5130;DHT22;2583;50.946;6.954;2023-09-18T04:37:39;21.40;1.00
5130;DHT22;2583;50.946;6.954;2023-09-18T04:40:07;21.40;1.00
5130;DHT22;2583;50.946;6.954;2023-09-18T04:42:38;21.40;1.00
5130;DHT22;2583;50.946;6.954;2023-09-18T04:45:05;21.30;1.00
5130;DHT22;2583;50.946;6.954;2023-09-18T04:47:32;21.30;1.00
5130;DHT22;2583;50.946;6.954;2023-09-18T04:49:59;21.20;1.00
5130;DHT22;2583;50.946;6.954;2023-09-18T04:52:26;21.20;1.00
5130;DHT22;2583;50.946;6.954;2023-09-18T04:54:53;21.10;1.00
5130;DHT22;2583;50.946;6.954;2023-09-18T04:57:20;21.10;1.00
5130;DHT22;2583;50.946;6.954;2023-09-18T04:59:49;21.10;1.00
5130;DHT22;2583;50.946;6.954;2023-09-18T05:02:35;21.10;1.00
5130;DHT22;2583;50.946;6.954;2023-09-18T05:05:03;21.10;1.00
5130;DHT22;2583;50.946;6.954;2023-09-18T05:07:30;21.10;1.00
5130;DHT22;2583;50.946;6.954;2023-09-18T05:09:59;21.10;1.00
5130;DHT22;2583;50.946;6.954;2023-09-18T05:12:25;21.10;1.00
5130;DHT22;2583;50.946;6.954;2023-09-18T05:14:52;21.10;1.00
5130;DHT22;2583;50.946;6.954;2023-09-18T05:17:19;21.10;1.00
5130;DHT22;2583;50.946;6.954;2023-09-18T05:19:46;21.10;1.00
5130;DHT22;2583;50.946;6.954;2023-09-18T05:22:13;21.10;1.00
5130;DHT22;2583;50.946;6.954;2023-09-18T05:24:40;21.10;1.00
5130;DHT22;2583;50.946;6.954;2023-09-18T05:27:06;21.10;1.00
5130;DHT22;2583;50.946;6.954;2023-09-18T05:29:34;21.10;1.00
5130;DHT22;2583;50.946;6.954;2023-09-18T05:32:04;21.10;1.00
5130;DHT22;2583;50.946;6.954;2023-09-18T05:34:31;21.10;1.00
5130;DHT22;2583;50.946;6.954;2023-09-18T05:36:58;21.00;1.00
5130;DHT22;2583;50.946;6.954;2023-09-18T05:39:25;21.10;1.00
5130;DHT22;2583;50.946;6.954;2023-09-18T05:41:52;21.10;1.00
5130;DHT22;2583;50.946;6.954;2023-09-18T05:44:19;21.10;1.00
5130;DHT22;2583;50.946;6.954;2023-09-18T05:46:46;21.10;1.00
5130;DHT22;2583;50.946;6.954;2023-09-18T05:49:13;21.10;1.00
5130;DHT22;2583;50.946;6.954;2023-09-18T05:51:39;21.10;1.00
5130;DHT22;2583;50.946;6.954;2023-09-18T05:54:06;21.10;1.00
5130;DHT22;2583;50.946;6.954;2023-09-18T05:56:33;21.10;1.00
5130;DHT22;2583;50.946;6.954;2023-09-18T05:59:00;21.10;1.00
5130;DHT22;2583;50.946;6.954;2023-09-18T06:01:27;21.10;1.00
5130;DHT22;2583;50.946;6.954;2023-09-18T06:03:55;21.10;1.00
5130;DHT22;2583;50.946;6.954;2023-09-18T06:06:22;21.20;1.00
5130;DHT22;2583;50.946;6.954;2023-09-18T06:08:49;21.20;1.00
5130;DHT22;2583;50.946;6.954;2023-09-18T06:11:16;21.20;1.00
5130;DHT22;2583;50.946;6.954;2023-09-18T06:13:43;21.20;1.00
5130;DHT22;2583;50.946;6.954;2023-09-18T06:16:10;21.20;1.00
5130;DHT22;2583;50.946;6.954;2023-09-18T06:18:37;21.30;1.00
5130;DHT22;2583;50.946;6.954;2023-09-18T06:21:05;21.30;1.00
5130;DHT22;2583;50.946;6.954;2023-09-18T06:23:32;21.40;1.00
5130;DHT22;2583;50.946;6.954;2023-09-18T06:25:59;21.40;1.00
5130;DHT22;2583;50.946;6.954;2023-09-18T06:28:26;21.40;1.00
5130;DHT22;2583;50.946;6.954;2023-09-18T06:30:53;21.50;1.00
5130;DHT22;2583;50.946;6.954;2023-09-18T06:33:23;21.50;1.00
5130;DHT22;2583;50.946;6.954;2023-09-18T06:35:50;21.50;1.00
5130;DHT22;2583;50.946;6.954;2023-09-18T06:38:18;21.60;1.00
5130;DHT22;2583;50.946;6.954;2023-09-18T06:40:46;21.60;1.00
5130;DHT22;2583;50.946;6.954;2023-09-18T06:43:14;21.60;1.00
5130;DHT22;2583;50.946;6.954;2023-09-18T06:45:41;21.70;1.00
5130;DHT22;2583;50.946;6.954;2023-09-18T06:48:07;21.70;1.00
5130;DHT22;2583;50.946;6.954;2023-09-18T06:50:34;21.70;1.00
5130;DHT22;2583;50.946;6.954;2023-09-18T06:53:03;21.70;1.00
5130;DHT22;2583;50.946;6.954;2023-09-18T06:55:29;21.70;1.00
5130;DHT22;2583;50.946;6.954;2023-09-18T06:57:56;21.70;1.00
5130;DHT22;2583;50.946;6.954;2023-09-18T07:00:23;21.80;1.00
5130;DHT22;2583;50.946;6.954;2023-09-18T07:02:50;21.80;1.00
5130;DHT22;2583;50.946;6.954;2023-09-18T07:05:17;21.80;1.00
5130;DHT22;2583;50.946;6.954;2023-09-18T07:07:44;21.90;1.00
5130;DHT22;2583;50.946;6.954;2023-09-18T07:10:10;21.90;1.00
5130;DHT22;2583;50.946;6.954;2023-09-18T07:12:38;22.00;1.00
5130;DHT22;2583;50.946;6.954;2023-09-18T07:15:05;22.00;1.00
5130;DHT22;2583;50.946;6.954;2023-09-18T07:17:33;22.00;1.00
5130;DHT22;2583;50.946;6.954;2023-09-18T07:20:01;22.10;1.00
5130;DHT22;2583;50.946;6.954;2023-09-18T07:22:29;22.10;1.00
5130;DHT22;2583;50.946;6.954;2023-09-18T07:24:57;22.10;1.00
5130;DHT22;2583;50.946;6.954;2023-09-18T07:27:24;22.20;1.00
5130;DHT22;2583;50.946;6.954;2023-09-18T07:29:50;22.30;1.00
5130;DHT22;2583;50.946;6.954;2023-09-18T07:32:17;22.30;1.00
5130;DHT22;2583;50.946;6.954;2023-09-18T07:35:02;22.30;1.00
5130;DHT22;2583;50.946;6.954;2023-09-18T07:37:31;22.30;1.00
5130;DHT22;2583;50.946;6.954;2023-09-18T07:39:58;22.30;1.00
5130;DHT22;2583;50.946;6.954;2023-09-18T07:42:28;22.30;1.00
5130;DHT22;2583;50.946;6.954;2023-09-18T07:44:54;22.30;1.00
5130;DHT22;2583;50.946;6.954;2023-09-18T07:47:25;22.40;1.00
5130;DHT22;2583;50.946;6.954;2023-09-18T07:49:52;22.40;1.00
5130;DHT22;2583;50.946;6.954;2023-09-18T07:52:21;22.50;1.00
5130;DHT22;2583;50.946;6.954;2023-09-18T07:54:47;22.50;1.00
5130;DHT22;2583;50.946;6.954;2023-09-18T07:57:15;22.50;1.00
5130;DHT22;2583;50.946;6.954;2023-09-18T07:59:42;22.50;1.00
5130;DHT22;2583;50.946;6.954;2023-09-18T08:02:09;22.40;1.00
5130;DHT22;2583;50.946;6.954;2023-09-18T08:04:36;22.40;1.00
5130;DHT22;2583;50.946;6.954;2023-09-18T08:07:04;22.40;1.00
5130;DHT22;2583;50.946;6.954;2023-09-18T08:09:33;22.40;1.00
5130;DHT22;2583;50.946;6.954;2023-09-18T08:12:03;22.30;1.00
5130;DHT22;2583;50.946;6.954;2023-09-18T08:14:30;22.40;1.00
5130;DHT22;2583;50.946;6.954;2023-09-18T08:16:58;22.40;1.00
5130;DHT22;2583;50.946;6.954;2023-09-18T08:19:27;22.50;1.00
5130;DHT22;2583;50.946;6.954;2023-09-18T08:21:54;22.40;1.00
5130;DHT22;2583;50.946;6.954;2023-09-18T08:24:23;22.50;1.00
5130;DHT22;2583;50.946;6.954;2023-09-18T08:26:49;22.40;1.00
5130;DHT22;2583;50.946;6.954;2023-09-18T08:29:16;22.50;1.00
5130;DHT22;2583;50.946;6.954;2023-09-18T08:31:44;22.50;1.00
5130;DHT22;2583;50.946;6.954;2023-09-18T08:34:11;22.50;1.00
5130;DHT22;2583;50.946;6.954;2023-09-18T08:36:38;22.60;1.00
5130;DHT22;2583;50.946;6.954;2023-09-18T08:39:05;22.60;1.00
5130;DHT22;2583;50.946;6.954;2023-09-18T08:41:33;22.60;1.00
5130;DHT22;2583;50.946;6.954;2023-09-18T08:44:03;22.60;1.00
5130;DHT22;2583;50.946;6.954;2023-09-18T08:46:34;22.70;1.00
5130;DHT22;2583;50.946;6.954;2023-09-18T08:49:01;22.70;1.00
5130;DHT22;2583;50.946;6.954;2023-09-18T08:51:28;22.70;1.00
5130;DHT22;2583;50.946;6.954;2023-09-18T08:53:56;22.70;1.00
5130;DHT22;2583;50.946;6.954;2023-09-18T08:56:23;22.70;1.00
5130;DHT22;2583;50.946;6.954;2023-09-18T08:58:50;22.80;1.00
5130;DHT22;2583;50.946;6.954;2023-09-18T09:01:20;22.90;1.00
5130;DHT22;2583;50.946;6.954;2023-09-18T09:03:47;23.00;1.00
5130;DHT22;2583;50.946;6.954;2023-09-18T09:06:16;23.10;1.00
5130;DHT22;2583;50.946;6.954;2023-09-18T09:08:43;23.10;1.00
5130;DHT22;2583;50.946;6.954;2023-09-18T09:11:10;23.20;1.00
5130;DHT22;2583;50.946;6.954;2023-09-18T09:13:37;23.10;1.00
5130;DHT22;2583;50.946;6.954;2023-09-18T09:16:12;23.10;1.00
5130;DHT22;2583;50.946;6.954;2023-09-18T09:18:50;23.10;1.00
5130;DHT22;2583;50.946;6.954;2023-09-18T09:21:19;23.10;1.00
5130;DHT22;2583;50.946;6.954;2023-09-18T09:23:50;23.10;1.00
5130;DHT22;2583;50.946;6.954;2023-09-18T09:26:24;23.10;1.00
5130;DHT22;2583;50.946;6.954;2023-09-18T09:28:51;23.20;1.00
5130;DHT22;2583;50.946;6.954;2023-09-18T09:31:29;23.20;1.00
5130;DHT22;2583;50.946;6.954;2023-09-18T09:33:57;23.20;1.00
5130;DHT22;2583;50.946;6.954;2023-09-18T09:36:25;23.20;1.00
5130;DHT22;2583;50.946;6.954;2023-09-18T09:38:55;23.30;1.00
5130;DHT22;2583;50.946;6.954;2023-09-18T09:41:25;23.40;1.00
5130;DHT22;2583;50.946;6.954;2023-09-18T09:43:56;23.40;1.00
5130;DHT22;2583;50.946;6.954;2023-09-18T09:46:23;23.40;1.00
5130;DHT22;2583;50.946;6.954;2023-09-18T09:49:03;23.50;1.00
5130;DHT22;2583;50.946;6.954;2023-09-18T09:51:31;23.50;1.00
5130;DHT22;2583;50.946;6.954;2023-09-18T09:53:58;23.60;1.00
5130;DHT22;2583;50.946;6.954;2023-09-18T09:56:46;23.70;1.00
5130;DHT22;2583;50.946;6.954;2023-09-18T09:59:15;23.60;1.00
5130;DHT22;2583;50.946;6.954;2023-09-18T10:01:43;23.70;1.00
5130;DHT22;2583;50.946;6.954;2023-09-18T10:04:15;23.70;1.00
5130;DHT22;2583;50.946;6.954;2023-09-18T10:06:47;23.70;1.00
5130;DHT22;2583;50.946;6.954;2023-09-18T10:09:19;23.70;1.00
5130;DHT22;2583;50.946;6.954;2023-09-18T10:11:52;23.80;1.00
5130;DHT22;2583;50.946;6.954;2023-09-18T10:14:20;23.90;1.00
5130;DHT22;2583;50.946;6.954;2023-09-18T10:16:53;24.00;1.00
5130;DHT22;2583;50.946;6.954;2023-09-18T10:19:45;24.00;1.00
5130;DHT22;2583;50.946;6.954;2023-09-18T10:22:27;24.10;1.00
5130;DHT22;2583;50.946;6.954;2023-09-18T10:27:37;24.30;1.00
5130;DHT22;2583;50.946;6.954;2023-09-18T10:30:09;24.20;1.00
5130;DHT22;2583;50.946;6.954;2023-09-18T10:32:41;24.40;1.00
5130;DHT22;2583;50.946;6.954;2023-09-18T10:35:08;24.40;1.00
5130;DHT22;2583;50.946;6.954;2023-09-18T10:37:36;24.30;1.00
5130;DHT22;2583;50.946;6.954;2023-09-18T10:40:05;24.40;1.00
5130;DHT22;2583;50.946;6.954;2023-09-18T10:42:35;24.50;1.00
5130;DHT22;2583;50.946;6.954;2023-09-18T10:45:04;24.60;1.00
5130;DHT22;2583;50.946;6.954;2023-09-18T10:47:32;24.60;1.00
5130;DHT22;2583;50.946;6.954;2023-09-18T10:49:59;24.70;1.00
5130;DHT22;2583;50.946;6.954;2023-09-18T10:52:26;24.80;1.00
5130;DHT22;2583;50.946;6.954;2023-09-18T10:54:53;24.90;1.00
5130;DHT22;2583;50.946;6.954;2023-09-18T10:57:20;25.00;1.00
5130;DHT22;2583;50.946;6.954;2023-09-18T10:59:50;24.90;1.00
5130;DHT22;2583;50.946;6.954;2023-09-18T11:02:21;25.00;1.00
5130;DHT22;2583;50.946;6.954;2023-09-18T11:04:48;25.10;1.00
5130;DHT22;2583;50.946;6.954;2023-09-18T11:07:22;25.10;1.00
5130;DHT22;2583;50.946;6.954;2023-09-18T11:09:49;25.10;1.00
5130;DHT22;2583;50.946;6.954;2023-09-18T11:12:17;25.30;1.00
5130;DHT22;2583;50.946;6.954;2023-09-18T11:20:03;25.30;1.00
5130;DHT22;2583;50.946;6.954;2023-09-18T11:22:47;25.30;1.00
5130;DHT22;2583;50.946;6.954;2023-09-18T11:25:39;25.50;1.00
5130;DHT22;2583;50.946;6.954;2023-09-18T11:28:22;25.50;1.00
5130;DHT22;2583;50.946;6.954;2023-09-18T11:30:55;25.60;1.00
5130;DHT22;2583;50.946;6.954;2023-09-18T11:33:40;25.70;1.00
5130;DHT22;2583;50.946;6.954;2023-09-18T11:36:13;25.60;1.00
5130;DHT22;2583;50.946;6.954;2023-09-18T11:38:55;25.70;1.00
5130;DHT22;2583;50.946;6.954;2023-09-18T11:41:27;25.70;1.00
5130;DHT22;2583;50.946;6.954;2023-09-18T11:46:49;25.70;1.00
5130;DHT22;2583;50.946;6.954;2023-09-18T11:49:22;25.60;1.00
5130;DHT22;2583;50.946;6.954;2023-09-18T11:51:50;25.70;1.00
5130;DHT22;2583;50.946;6.954;2023-09-18T11:54:18;25.80;1.00
5130;DHT22;2583;50.946;6.954;2023-09-18T11:56:45;26.00;1.00
5130;DHT22;2583;50.946;6.954;2023-09-18T11:59:12;26.20;1.00
5130;DHT22;2583;50.946;6.954;2023-09-18T12:01:39;26.30;1.00
5130;DHT22;2583;50.946;6.954;2023-09-18T12:04:07;26.30;1.00
5130;DHT22;2583;50.946;6.954;2023-09-18T12:06:41;26.40;1.00
5130;DHT22;2583;50.946;6.954;2023-09-18T12:09:08;26.60;1.00
5130;DHT22;2583;50.946;6.954;2023-09-18T12:11:36;26.60;1.00
5130;DHT22;2583;50.946;6.954;2023-09-18T12:14:04;26.70;1.00
5130;DHT22;2583;50.946;6.954;2023-09-18T12:16:37;27.00;1.00
5130;DHT22;2583;50.946;6.954;2023-09-18T12:19:05;26.90;1.00
5130;DHT22;2583;50.946;6.954;2023-09-18T12:21:41;27.00;1.00
5130;DHT22;2583;50.946;6.954;2023-09-18T12:24:14;27.00;1.00
5130;DHT22;2583;50.946;6.954;2023-09-18T12:26:41;27.00;1.00
5130;DHT22;2583;50.946;6.954;2023-09-18T12:29:08;27.20;1.00
5130;DHT22;2583;50.946;6.954;2023-09-18T12:31:37;27.40;1.00
5130;DHT22;2583;50.946;6.954;2023-09-18T12:34:04;27.60;1.00
5130;DHT22;2583;50.946;6.954;2023-09-18T12:36:34;27.50;1.00
5130;DHT22;2583;50.946;6.954;2023-09-18T12:39:01;27.60;1.00
5130;DHT22;2583;50.946;6.954;2023-09-18T12:41:28;27.50;1.00
5130;DHT22;2583;50.946;6.954;2023-09-18T12:43:58;27.50;1.00
5130;DHT22;2583;50.946;6.954;2023-09-18T12:46:24;27.60;1.00
5130;DHT22;2583;50.946;6.954;2023-09-18T12:48:52;27.50;1.00
5130;DHT22;2583;50.946;6.954;2023-09-18T12:51:29;27.60;1.00
5130;DHT22;2583;50.946;6.954;2023-09-18T12:54:01;27.80;1.00
5130;DHT22;2583;50.946;6.954;2023-09-18T12:56:40;27.90;1.00
5130;DHT22;2583;50.946;6.954;2023-09-18T12:59:07;27.90;1.00
5130;DHT22;2583;50.946;6.954;2023-09-18T13:01:46;27.80;1.00
5130;DHT22;2583;50.946;6.954;2023-09-18T13:04:13;28.10;1.00
5130;DHT22;2583;50.946;6.954;2023-09-18T13:06:40;28.20;1.00
5130;DHT22;2583;50.946;6.954;2023-09-18T13:09:18;28.50;1.00
5130;DHT22;2583;50.946;6.954;2023-09-18T13:11:57;28.80;1.00
5130;DHT22;2583;50.946;6.954;2023-09-18T13:14:24;28.60;1.00
5130;DHT22;2583;50.946;6.954;2023-09-18T13:16:51;28.90;1.00
5130;DHT22;2583;50.946;6.954;2023-09-18T13:19:19;29.10;1.00
5130;DHT22;2583;50.946;6.954;2023-09-18T13:21:47;29.10;1.00
5130;DHT22;2583;50.946;6.954;2023-09-18T13:24:29;29.10;1.00
5130;DHT22;2583;50.946;6.954;2023-09-18T13:26:57;29.10;1.00
5130;DHT22;2583;50.946;6.954;2023-09-18T13:29:25;29.00;1.00
5130;DHT22;2583;50.946;6.954;2023-09-18T13:31:52;29.20;1.00
5130;DHT22;2583;50.946;6.954;2023-09-18T13:34:19;29.50;1.00
5130;DHT22;2583;50.946;6.954;2023-09-18T13:36:47;29.80;1.00
5130;DHT22;2583;50.946;6.954;2023-09-18T13:39:14;29.90;1.00
5130;DHT22;2583;50.946;6.954;2023-09-18T13:41:45;30.00;1.00
5130;DHT22;2583;50.946;6.954;2023-09-18T13:44:11;30.00;1.00
5130;DHT22;2583;50.946;6.954;2023-09-18T13:46:38;30.20;1.00
5130;DHT22;2583;50.946;6.954;2023-09-18T13:49:05;30.60;1.00
5130;DHT22;2583;50.946;6.954;2023-09-18T13:51:33;30.70;1.00
5130;DHT22;2583;50.946;6.954;2023-09-18T13:54:00;30.10;1.00
5130;DHT22;2583;50.946;6.954;2023-09-18T13:56:27;30.40;1.00
5130;DHT22;2583;50.946;6.954;2023-09-18T13:58:55;30.40;1.00
5130;DHT22;2583;50.946;6.954;2023-09-18T14:01:25;30.50;1.00
5130;DHT22;2583;50.946;6.954;2023-09-18T14:03:54;30.80;1.00
5130;DHT22;2583;50.946;6.954;2023-09-18T14:06:21;30.60;1.00
5130;DHT22;2583;50.946;6.954;2023-09-18T14:08:48;30.40;1.00
5130;DHT22;2583;50.946;6.954;2023-09-18T14:11:15;29.70;1.00
5130;DHT22;2583;50.946;6.954;2023-09-18T14:13:42;29.40;1.00
5130;DHT22;2583;50.946;6.954;2023-09-18T14:16:09;29.10;1.00
5130;DHT22;2583;50.946;6.954;2023-09-18T14:18:37;28.60;1.00
5130;DHT22;2583;50.946;6.954;2023-09-18T14:21:05;28.20;1.00
5130;DHT22;2583;50.946;6.954;2023-09-18T14:23:33;27.90;1.00
5130;DHT22;2583;50.946;6.954;2023-09-18T14:26:01;27.80;1.00
5130;DHT22;2583;50.946;6.954;2023-09-18T14:28:28;27.60;1.00
5130;DHT22;2583;50.946;6.954;2023-09-18T14:30:55;27.60;1.00
5130;DHT22;2583;50.946;6.954;2023-09-18T14:33:22;27.60;1.00
5130;DHT22;2583;50.946;6.954;2023-09-18T14:35:49;27.50;1.00
5130;DHT22;2583;50.946;6.954;2023-09-18T14:38:16;27.50;1.00
5130;DHT22;2583;50.946;6.954;2023-09-18T14:40:43;27.50;1.00
5130;DHT22;2583;50.946;6.954;2023-09-18T14:43:10;27.20;1.00
5130;DHT22;2583;50.946;6.954;2023-09-18T14:45:38;27.20;1.00
5130;DHT22;2583;50.946;6.954;2023-09-18T14:48:06;27.30;1.00
5130;DHT22;2583;50.946;6.954;2023-09-18T14:50:33;27.20;1.00
5130;DHT22;2583;50.946;6.954;2023-09-18T14:53:00;27.00;1.00
5130;DHT22;2583;50.946;6.954;2023-09-18T14:55:27;26.90;1.00
5130;DHT22;2583;50.946;6.954;2023-09-18T14:57:54;26.90;1.00
5130;DHT22;2583;50.946;6.954;2023-09-18T15:00:21;26.70;1.00
5130;DHT22;2583;50.946;6.954;2023-09-18T15:02:48;26.70;1.00
5130;DHT22;2583;50.946;6.954;2023-09-18T15:05:15;26.70;1.00
5130;DHT22;2583;50.946;6.954;2023-09-18T15:07:44;26.60;1.00
5130;DHT22;2583;50.946;6.954;2023-09-18T15:10:11;26.60;1.00
5130;DHT22;2583;50.946;6.954;2023-09-18T15:12:37;26.70;1.00
5130;DHT22;2583;50.946;6.954;2023-09-18T15:15:05;26.50;1.00
5130;DHT22;2583;50.946;6.954;2023-09-18T15:17:32;26.50;1.00
5130;DHT22;2583;50.946;6.954;2023-09-18T15:20:00;26.40;1.00
5130;DHT22;2583;50.946;6.954;2023-09-18T15:22:26;26.40;1.00
5130;DHT22;2583;50.946;6.954;2023-09-18T15:24:53;26.30;1.00
5130;DHT22;2583;50.946;6.954;2023-09-18T15:27:24;26.30;1.00
5130;DHT22;2583;50.946;6.954;2023-09-18T15:29:51;26.20;1.00
5130;DHT22;2583;50.946;6.954;2023-09-18T15:32:18;26.20;1.00
5130;DHT22;2583;50.946;6.954;2023-09-18T15:34:46;26.20;1.00
5130;DHT22;2583;50.946;6.954;2023-09-18T15:37:14;26.10;1.00
5130;DHT22;2583;50.946;6.954;2023-09-18T15:39:43;26.10;1.00
5130;DHT22;2583;50.946;6.954;2023-09-18T15:42:10;26.20;1.00
5130;DHT22;2583;50.946;6.954;2023-09-18T15:44:37;26.30;1.00
5130;DHT22;2583;50.946;6.954;2023-09-18T15:47:04;26.20;1.00
5130;DHT22;2583;50.946;6.954;2023-09-18T15:49:32;26.10;1.00
5130;DHT22;2583;50.946;6.954;2023-09-18T15:51:58;26.00;1.00
5130;DHT22;2583;50.946;6.954;2023-09-18T15:54:25;25.90;1.00
5130;DHT22;2583;50.946;6.954;2023-09-18T15:56:52;25.80;1.00
5130;DHT22;2583;50.946;6.954;2023-09-18T15:59:20;25.70;1.00
5130;DHT22;2583;50.946;6.954;2023-09-18T16:01:48;25.60;1.00
5130;DHT22;2583;50.946;6.954;2023-09-18T16:04:15;25.60;1.00
5130;DHT22;2583;50.946;6.954;2023-09-18T16:06:42;25.60;1.00
5130;DHT22;2583;50.946;6.954;2023-09-18T16:09:10;25.60;1.00
5130;DHT22;2583;50.946;6.954;2023-09-18T16:11:37;25.60;1.00
5130;DHT22;2583;50.946;6.954;2023-09-18T16:14:04;25.70;1.00
5130;DHT22;2583;50.946;6.954;2023-09-18T16:16:31;25.70;1.00
5130;DHT22;2583;50.946;6.954;2023-09-18T16:18:58;25.70;1.00
5130;DHT22;2583;50.946;6.954;2023-09-18T16:21:25;25.70;1.00
5130;DHT22;2583;50.946;6.954;2023-09-18T16:23:52;25.80;1.00
5130;DHT22;2583;50.946;6.954;2023-09-18T16:26:22;25.80;1.00
5130;DHT22;2583;50.946;6.954;2023-09-18T16:28:49;25.80;1.00
5130;DHT22;2583;50.946;6.954;2023-09-18T16:31:16;25.70;1.00
5130;DHT22;2583;50.946;6.954;2023-09-18T16:33:43;25.70;1.00
5130;DHT22;2583;50.946;6.954;2023-09-18T16:36:10;25.60;1.00
5130;DHT22;2583;50.946;6.954;2023-09-18T16:38:37;25.40;1.00
5130;DHT22;2583;50.946;6.954;2023-09-18T16:41:08;25.40;1.00